createdAt,value
2022-10-22T00:01:31.825Z,102686.09
2022-10-22T00:03:59.129Z,102696.09
2022-10-22T00:06:26.586Z,102715.72
2022-10-22T00:08:55.201Z,102716.94
2022-10-22T00:11:22.539Z,102727.41
2022-10-22T00:13:49.799Z,102737.00
2022-10-22T00:16:17.069Z,102744.22
2022-10-22T00:18:44.283Z,102748.25
2022-10-22T00:21:12.083Z,102755.88
2022-10-22T00:23:40.511Z,102759.84
2022-10-22T00:26:09.820Z,102772.28
2022-10-22T00:28:37.214Z,102773.84
2022-10-22T00:31:04.994Z,102784.69
2022-10-22T00:33:32.494Z,102782.72
2022-10-22T00:35:59.952Z,102781.19
2022-10-22T00:38:27.173Z,102799.50
2022-10-22T00:40:54.488Z,102807.88
2022-10-22T00:43:23.514Z,102803.50
2022-10-22T00:45:50.883Z,102807.50
2022-10-22T00:48:21.915Z,102825.16
2022-10-22T00:50:51.447Z,102834.34
2022-10-22T00:53:22.629Z,102846.72
2022-10-22T00:55:52.949Z,102851.56
2022-10-22T00:58:26.045Z,102857.94
2022-10-22T01:00:54.368Z,102859.50
2022-10-22T01:03:21.746Z,102863.91
2022-10-22T01:05:54.933Z,102869.13
2022-10-22T01:08:29.055Z,102869.13
2022-10-22T01:11:09.983Z,102871.50
2022-10-22T01:13:48.962Z,102878.34
2022-10-22T01:16:22.465Z,102893.91
2022-10-22T01:18:56.355Z,102907.94
2022-10-22T01:21:31.117Z,102916.75
2022-10-22T01:24:23.432Z,102924.38
2022-10-22T01:27:03.770Z,102923.59
2022-10-22T01:29:37.377Z,102930.78
2022-10-22T01:32:10.855Z,102935.97
2022-10-22T01:34:41.218Z,102943.56
2022-10-22T01:37:10.404Z,102933.22
2022-10-22T01:39:40.239Z,102932.00
2022-10-22T01:42:07.480Z,102940.78
2022-10-22T01:47:17.074Z,102936.00
2022-10-22T01:50:26.952Z,102953.97
2022-10-22T01:53:11.742Z,102944.00
2022-10-22T01:55:48.164Z,102947.59
2022-10-22T01:58:27.232Z,102962.81
2022-10-22T02:01:01.635Z,102976.41
2022-10-22T02:03:37.890Z,102982.41
2022-10-22T02:06:12.107Z,102990.81
2022-10-22T02:08:40.857Z,102992.81
2022-10-22T02:11:08.318Z,103013.59
2022-10-22T02:13:40.335Z,103016.41
2022-10-22T02:16:13.606Z,103010.00
2022-10-22T02:18:44.974Z,103016.81
2022-10-22T02:21:12.478Z,103018.00
2022-10-22T02:23:39.926Z,103024.41
2022-10-22T02:26:21.955Z,103031.63
2022-10-22T02:28:57.606Z,103045.56
2022-10-22T02:31:29.222Z,103056.00
2022-10-22T02:34:01.337Z,103064.41
2022-10-22T02:36:29.357Z,103061.59
2022-10-22T02:38:57.007Z,103076.78
2022-10-22T02:41:24.426Z,103080.38
2022-10-22T02:43:54.822Z,103097.19
2022-10-22T02:46:23.039Z,103104.78
2022-10-22T02:48:51.611Z,103116.38
2022-10-22T02:51:19.143Z,103119.56
2022-10-22T02:53:46.419Z,103125.97
2022-10-22T02:56:13.952Z,103133.97
2022-10-22T02:58:41.273Z,103152.34
2022-10-22T03:01:10.310Z,103165.97
2022-10-22T03:03:39.684Z,103175.97
2022-10-22T03:06:08.690Z,103187.19
2022-10-22T03:08:36.531Z,103191.56
2022-10-22T03:11:03.787Z,103201.59
2022-10-22T03:13:31.094Z,103201.16
2022-10-22T03:15:58.397Z,103210.78
2022-10-22T03:18:25.732Z,103219.53
2022-10-22T03:21:01.995Z,103226.75
2022-10-22T03:23:31.765Z,103228.34
2022-10-22T03:28:31.709Z,103251.94
2022-10-22T03:30:59.011Z,103256.72
2022-10-22T03:33:26.251Z,103261.91
2022-10-22T03:35:53.583Z,103259.91
2022-10-22T03:38:20.893Z,103263.13
2022-10-22T03:40:49.871Z,103282.72
2022-10-22T03:43:17.591Z,103284.31
2022-10-22T03:45:44.945Z,103294.72
2022-10-22T03:48:12.312Z,103301.94
2022-10-22T03:50:39.553Z,103315.53
2022-10-22T03:53:06.746Z,103316.34
2022-10-22T03:55:34.027Z,103324.31
2022-10-22T03:58:02.779Z,103322.72
2022-10-22T04:00:29.976Z,103325.13
2022-10-22T04:02:57.248Z,103341.91
2022-10-22T04:05:24.495Z,103335.53
2022-10-22T04:07:51.941Z,103350.72
2022-10-22T04:10:19.167Z,103351.50
2022-10-22T04:12:47.689Z,103367.53
2022-10-22T04:15:16.512Z,103366.31
2022-10-22T04:17:44.064Z,103369.91
2022-10-22T04:20:11.579Z,103387.50
2022-10-22T04:22:39.049Z,103390.66
2022-10-22T04:25:06.478Z,103394.66
2022-10-22T04:27:34.117Z,103401.81
2022-10-22T04:30:01.884Z,103405.00
2022-10-22T04:32:30.585Z,103413.00
2022-10-22T04:34:57.794Z,103408.19
2022-10-22T04:37:25.016Z,103409.41
2022-10-22T04:39:52.212Z,103409.81
2022-10-22T04:42:19.399Z,103419.38
2022-10-22T04:44:46.589Z,103409.81
2022-10-22T04:47:13.742Z,103418.22
2022-10-22T04:49:42.364Z,103419.41
2022-10-22T04:52:09.575Z,103419.34
2022-10-22T04:54:36.914Z,103422.16
2022-10-22T04:57:04.286Z,103425.34
2022-10-22T04:59:31.751Z,103425.31
2022-10-22T05:01:59.000Z,103427.31
2022-10-22T05:04:26.264Z,103424.88
2022-10-22T05:06:54.851Z,103429.69
2022-10-22T05:09:22.181Z,103435.66
2022-10-22T05:11:52.573Z,103427.25
2022-10-22T05:14:22.179Z,103429.72
2022-10-22T05:16:50.465Z,103426.88
2022-10-22T05:19:20.256Z,103435.25
2022-10-22T05:21:47.495Z,103429.66
2022-10-22T05:24:16.054Z,103436.44
2022-10-22T05:26:43.261Z,103447.25
2022-10-22T05:29:10.539Z,103464.88
2022-10-22T05:31:37.996Z,103466.44
2022-10-22T05:34:05.225Z,103476.06
2022-10-22T05:36:32.581Z,103478.88
2022-10-22T05:38:59.870Z,103481.66
2022-10-22T05:41:28.923Z,103485.28
2022-10-22T05:43:57.279Z,103488.84
2022-10-22T05:46:26.790Z,103494.44
2022-10-22T05:48:55.858Z,103507.31
2022-10-22T05:51:24.420Z,103516.09
2022-10-22T05:53:53.021Z,103525.75
2022-10-22T05:56:20.597Z,103520.13
2022-10-22T05:58:49.283Z,103534.56
2022-10-22T06:01:18.483Z,103534.94
2022-10-22T06:03:46.990Z,103533.66
2022-10-22T06:06:19.565Z,103546.91
2022-10-22T06:08:47.817Z,103543.28
2022-10-22T06:11:15.549Z,103550.47
2022-10-22T06:13:42.705Z,103559.28
2022-10-22T06:16:11.365Z,103570.09
2022-10-22T06:18:38.567Z,103569.28
2022-10-22T06:21:06.410Z,103575.66
2022-10-22T06:23:33.649Z,103580.88
2022-10-22T06:26:01.542Z,103581.63
2022-10-22T06:28:29.061Z,103582.38
2022-10-22T06:30:57.649Z,103593.19
2022-10-22T06:33:26.603Z,103596.78
2022-10-22T06:35:54.062Z,103607.63
2022-10-22T06:38:21.640Z,103603.22
2022-10-22T06:40:48.939Z,103608.78
2022-10-22T06:43:16.220Z,103629.66
2022-10-22T06:45:43.429Z,103629.25
2022-10-22T06:48:10.624Z,103652.09
2022-10-22T06:50:39.225Z,103661.69
2022-10-22T06:53:06.538Z,103668.88
2022-10-22T06:55:35.676Z,103669.72
2022-10-22T06:58:02.939Z,103684.50
2022-10-22T07:00:30.155Z,103697.78
2022-10-22T07:02:59.178Z,103703.78
2022-10-22T07:05:27.267Z,103717.84
2022-10-22T07:07:55.854Z,103730.31
2022-10-22T07:10:25.974Z,103754.84
2022-10-22T07:12:55.755Z,103763.28
2022-10-22T07:15:23.005Z,103776.53
2022-10-22T07:17:50.269Z,103778.19
2022-10-22T07:20:17.612Z,103784.22
2022-10-22T07:22:45.076Z,103789.03
2022-10-22T07:25:13.715Z,103787.84
2022-10-22T07:27:41.143Z,103787.09
2022-10-22T07:30:09.563Z,103795.13
2022-10-22T07:32:36.823Z,103783.97
2022-10-22T07:35:04.694Z,103768.06
2022-10-22T07:37:32.034Z,103739.63
2022-10-22T07:40:02.973Z,103730.44
2022-10-22T07:42:32.859Z,103695.28
2022-10-22T07:45:00.010Z,103648.78
2022-10-22T07:47:27.221Z,103603.97
2022-10-22T07:49:54.465Z,103535.91
2022-10-22T07:52:21.726Z,103461.34
2022-10-22T07:54:48.945Z,103388.03
2022-10-22T07:57:16.194Z,103305.09
2022-10-22T07:59:46.073Z,103201.72
2022-10-22T08:02:13.316Z,103103.09
2022-10-22T08:04:40.607Z,103005.38
2022-10-22T08:07:07.861Z,102911.56
2022-10-22T08:09:35.125Z,102816.25
2022-10-22T08:12:02.601Z,102738.53
2022-10-22T08:14:29.916Z,102673.59
2022-10-22T08:16:58.582Z,102626.69
2022-10-22T08:19:26.013Z,102614.97
2022-10-22T08:21:53.270Z,102568.50
2022-10-22T08:24:20.557Z,102549.91
2022-10-22T08:26:48.032Z,102538.44
2022-10-22T08:29:15.480Z,102519.47
2022-10-22T08:31:44.791Z,102505.50
2022-10-22T08:34:13.472Z,102475.72
2022-10-22T08:36:40.707Z,102459.47
2022-10-22T08:39:08.113Z,102451.44
2022-10-22T08:41:44.422Z,102441.31
2022-10-22T08:44:28.643Z,102424.78
2022-10-22T08:47:18.639Z,102394.53
2022-10-22T08:49:50.607Z,102375.94
2022-10-22T08:52:19.814Z,102369.53
2022-10-22T08:54:51.906Z,102336.34
2022-10-22T08:57:47.565Z,102307.78
2022-10-22T09:00:23.446Z,102271.16
2022-10-22T09:03:06.669Z,102227.03
2022-10-22T09:05:45.919Z,102189.41
2022-10-22T09:08:16.098Z,102150.03
2022-10-22T09:10:47.963Z,102105.97
2022-10-22T09:13:18.891Z,102057.81
2022-10-22T09:15:49.368Z,102016.38
2022-10-22T09:18:30.300Z,101992.53
2022-10-22T09:21:12.138Z,101957.97
2022-10-22T09:23:52.623Z,101942.81
2022-10-22T09:26:19.810Z,101933.69
2022-10-22T09:28:50.289Z,101921.19
2022-10-22T09:31:18.074Z,101916.22
2022-10-22T09:33:46.957Z,101907.72
2022-10-22T09:36:18.022Z,101898.06
2022-10-22T09:38:48.325Z,101882.97
2022-10-22T09:41:17.340Z,101869.16
2022-10-22T09:43:47.096Z,101851.06
2022-10-22T09:46:17.088Z,101829.69
2022-10-22T09:48:48.502Z,101833.84
2022-10-22T09:51:19.983Z,101813.72
2022-10-22T09:53:54.882Z,101796.00
2022-10-22T09:56:26.541Z,101781.63
2022-10-22T09:58:56.510Z,101746.09
2022-10-22T10:01:25.965Z,101709.72
2022-10-22T10:03:53.966Z,101646.94
2022-10-22T10:06:23.324Z,101568.38
2022-10-22T10:08:50.781Z,101505.31
2022-10-22T10:11:29.208Z,101458.09
2022-10-22T10:14:06.958Z,101432.00
2022-10-22T10:16:44.611Z,101410.59
2022-10-22T10:19:26.228Z,101402.88
2022-10-22T10:22:04.554Z,101396.84
2022-10-22T10:24:45.357Z,101419.69
2022-10-22T10:27:20.668Z,101426.94
2022-10-22T10:29:56.915Z,101450.53
2022-10-22T10:32:43.999Z,101454.88
2022-10-22T10:35:23.886Z,101453.16
2022-10-22T10:38:03.429Z,101451.91
2022-10-22T10:40:42.436Z,101444.50
2022-10-22T10:43:13.457Z,101432.53
2022-10-22T10:45:55.745Z,101413.38
2022-10-22T10:48:44.628Z,101412.06
2022-10-22T10:51:24.262Z,101394.66
2022-10-22T10:54:04.957Z,101390.13
2022-10-22T10:56:39.586Z,101391.84
2022-10-22T10:59:19.089Z,101383.44
2022-10-22T11:01:59.787Z,101359.38
2022-10-22T11:04:50.625Z,101368.84
2022-10-22T11:07:34.215Z,101349.19
2022-10-22T11:10:13.838Z,101360.91
2022-10-22T11:12:44.393Z,101389.81
2022-10-22T11:15:21.913Z,101400.56
2022-10-22T11:17:49.375Z,101413.97
2022-10-22T11:20:19.947Z,101365.13
2022-10-22T11:23:17.718Z,101339.13
2022-10-22T11:25:44.592Z,101326.00
2022-10-22T11:30:45.818Z,101340.72
2022-10-22T11:33:18.702Z,101355.75
2022-10-22T11:35:48.171Z,101364.41
2022-10-22T11:38:18.175Z,101382.88
2022-10-22T11:40:48.406Z,101396.94
2022-10-22T11:43:27.736Z,101400.88
2022-10-22T11:46:02.128Z,101401.00
2022-10-22T11:48:37.615Z,101420.75
2022-10-22T11:51:29.543Z,101434.34
2022-10-22T11:53:58.330Z,101436.31
2022-10-22T11:56:36.314Z,101429.19
2022-10-22T11:59:08.015Z,101407.28
2022-10-22T12:01:42.990Z,101377.09
2022-10-22T12:04:19.675Z,101363.38
2022-10-22T12:06:54.828Z,101374.34
2022-10-22T12:09:23.672Z,101401.06
2022-10-22T12:11:52.572Z,101398.34
2022-10-22T12:14:22.462Z,101387.31
2022-10-22T12:16:57.211Z,101375.81
2022-10-22T12:19:29.003Z,101351.31
2022-10-22T12:21:59.235Z,101346.16
2022-10-22T12:24:31.441Z,101349.09
2022-10-22T12:27:00.080Z,101353.84
2022-10-22T12:29:27.539Z,101360.59
2022-10-22T12:31:54.812Z,101385.16
2022-10-22T12:34:24.209Z,101393.81
2022-10-22T12:36:53.390Z,101395.19
2022-10-22T12:39:25.158Z,101391.09
2022-10-22T12:41:53.135Z,101391.63
2022-10-22T12:44:21.840Z,101359.78
2022-10-22T12:46:53.107Z,101340.88
2022-10-22T12:49:33.248Z,101344.34
2022-10-22T12:52:02.953Z,101371.41
2022-10-22T12:54:33.482Z,101382.34
2022-10-22T12:57:01.893Z,101358.78
2022-10-22T12:59:34.740Z,101348.25
2022-10-22T13:02:06.808Z,101344.31
2022-10-22T13:04:37.771Z,101356.28
2022-10-22T13:07:18.519Z,101372.44
2022-10-22T13:09:58.336Z,101382.06
2022-10-22T13:12:27.283Z,101391.31
2022-10-22T13:14:55.852Z,101393.09
2022-10-22T13:17:39.606Z,101411.41
2022-10-22T13:20:17.719Z,101404.56
2022-10-22T13:22:54.844Z,101412.94
2022-10-22T13:25:25.286Z,101425.38
2022-10-22T13:27:55.411Z,101422.69
2022-10-22T13:30:26.880Z,101434.97
2022-10-22T13:32:57.350Z,101442.47
2022-10-22T13:35:27.752Z,101414.72
2022-10-22T13:37:55.029Z,101378.06
2022-10-22T13:40:22.365Z,101383.25
2022-10-22T13:42:49.574Z,101395.97
2022-10-22T13:45:17.392Z,101419.41
2022-10-22T13:47:50.198Z,101421.50
2022-10-22T13:50:20.338Z,101429.78
2022-10-22T13:52:51.023Z,101433.41
2022-10-22T13:55:21.577Z,101437.06
2022-10-22T13:57:48.820Z,101419.34
2022-10-22T14:00:18.476Z,101417.31
2022-10-22T14:02:50.336Z,101418.06
2022-10-22T14:05:18.203Z,101430.97
2022-10-22T14:07:46.019Z,101435.91
2022-10-22T14:10:19.047Z,101450.53
2022-10-22T14:12:50.874Z,101461.25
2022-10-22T14:15:23.046Z,101481.47
2022-10-22T14:17:54.621Z,101489.81
2022-10-22T14:20:24.023Z,101517.22
2022-10-22T14:22:51.712Z,101559.66
2022-10-22T14:25:21.338Z,101605.38
2022-10-22T14:27:49.138Z,101638.56
2022-10-22T14:30:18.278Z,101675.50
2022-10-22T14:32:45.659Z,101697.06
2022-10-22T14:35:16.461Z,101724.00
2022-10-22T14:37:43.724Z,101738.22
2022-10-22T14:40:14.608Z,101764.69
2022-10-22T14:42:44.207Z,101769.25
2022-10-22T14:45:16.309Z,101770.69
2022-10-22T14:47:43.623Z,101768.81
2022-10-22T14:50:11.481Z,101760.38
2022-10-22T14:52:40.674Z,101766.16
2022-10-22T14:55:09.180Z,101768.34
2022-10-22T14:57:36.461Z,101753.16
2022-10-22T15:00:05.085Z,101754.41
2022-10-22T15:02:32.287Z,101762.22
2022-10-22T15:04:59.553Z,101775.25
2022-10-22T15:07:26.792Z,101773.94
2022-10-22T15:09:55.396Z,101780.66
2022-10-22T15:12:22.718Z,101808.81
2022-10-22T15:14:50.049Z,101806.94
2022-10-22T15:17:18.401Z,101818.16
2022-10-22T15:19:45.668Z,101826.94
2022-10-22T15:22:14.139Z,101846.84
2022-10-22T15:24:42.137Z,101864.81
2022-10-22T15:27:10.878Z,101897.44
2022-10-22T15:29:38.111Z,101916.00
2022-10-22T15:32:05.820Z,101943.13
2022-10-22T15:34:34.982Z,101941.44
2022-10-22T15:37:04.916Z,101946.28
2022-10-22T15:39:32.245Z,101952.81
2022-10-22T15:41:59.580Z,101945.94
2022-10-22T15:44:30.405Z,101958.44
2022-10-22T15:46:58.093Z,101942.53
2022-10-22T15:49:27.522Z,101942.22
2022-10-22T15:51:57.847Z,101938.94
2022-10-22T15:54:27.323Z,101919.97
2022-10-22T15:56:55.145Z,101919.97
2022-10-22T15:59:22.464Z,101915.56
2022-10-22T16:01:51.762Z,101928.84
2022-10-22T16:04:19.537Z,101920.59
2022-10-22T16:06:48.702Z,101925.84
2022-10-22T16:09:17.731Z,101924.97
2022-10-22T16:11:45.614Z,101935.66
2022-10-22T16:14:14.873Z,101935.31
2022-10-22T16:16:44.388Z,101945.69
2022-10-22T16:19:14.862Z,101958.44
2022-10-22T16:21:42.143Z,101972.63
2022-10-22T16:24:09.868Z,101974.75
2022-10-22T16:26:37.206Z,101979.97
2022-10-22T16:29:05.384Z,101994.47
2022-10-22T16:31:32.733Z,102004.34
2022-10-22T16:34:00.195Z,102008.19
2022-10-22T16:36:28.872Z,102021.00
2022-10-22T16:38:56.182Z,102025.63
2022-10-22T16:41:24.627Z,102033.72
2022-10-22T16:43:54.931Z,102032.38
2022-10-22T16:46:23.091Z,102038.88
2022-10-22T16:48:52.140Z,102044.94
2022-10-22T16:51:22.820Z,102042.22
2022-10-22T16:53:52.887Z,102038.84
2022-10-22T16:56:20.379Z,102051.31
2022-10-22T16:58:49.598Z,102053.13
2022-10-22T17:01:18.264Z,102062.00
2022-10-22T17:03:46.048Z,102051.16
2022-10-22T17:06:14.112Z,102065.31
2022-10-22T17:08:42.109Z,102060.59
2022-10-22T17:11:12.211Z,102066.91
2022-10-22T17:13:41.299Z,102059.38
2022-10-22T17:16:11.296Z,102064.66
2022-10-22T17:18:40.391Z,102071.84
2022-10-22T17:21:10.177Z,102072.28
2022-10-22T17:23:37.513Z,102074.31
2022-10-22T17:26:07.084Z,102073.94
2022-10-22T17:28:36.272Z,102083.25
2022-10-22T17:31:05.688Z,102089.75
2022-10-22T17:33:33.349Z,102088.38
2022-10-22T17:36:01.044Z,102098.81
2022-10-22T17:38:28.450Z,102114.22
2022-10-22T17:40:59.156Z,102116.31
2022-10-22T17:43:27.989Z,102119.66
2022-10-22T17:46:05.112Z,102128.97
2022-10-22T17:48:33.126Z,102141.97
2022-10-22T17:51:00.464Z,102154.44
2022-10-22T17:53:27.741Z,102163.34
2022-10-22T17:56:02.030Z,102183.00
2022-10-22T17:58:29.981Z,102193.56
2022-10-22T18:00:57.495Z,102208.81
2022-10-22T18:03:26.378Z,102230.56
2022-10-22T18:05:54.024Z,102234.00
2022-10-22T18:08:22.060Z,102247.66
2022-10-22T18:10:49.270Z,102254.84
2022-10-22T18:13:16.492Z,102264.94
2022-10-22T18:15:43.701Z,102286.31
2022-10-22T18:18:10.929Z,102303.06
2022-10-22T18:20:39.559Z,102315.09
2022-10-22T18:23:06.834Z,102323.16
2022-10-22T18:25:38.665Z,102341.56
2022-10-22T18:28:05.877Z,102348.88
2022-10-22T18:30:33.157Z,102365.78
2022-10-22T18:33:00.484Z,102369.72
2022-10-22T18:35:31.389Z,102378.63
2022-10-22T18:38:00.034Z,102386.00
2022-10-22T18:40:27.209Z,102395.63
2022-10-22T18:42:54.412Z,102405.19
2022-10-22T18:45:21.679Z,102410.94
2022-10-22T18:47:48.888Z,102405.41
2022-10-22T18:50:16.318Z,102416.31
2022-10-22T18:52:43.890Z,102423.16
2022-10-22T18:55:13.067Z,102426.47
2022-10-22T18:57:40.300Z,102450.59
2022-10-22T19:00:09.000Z,102458.59
2022-10-22T19:02:37.592Z,102468.34
2022-10-22T19:05:05.663Z,102476.34
2022-10-22T19:07:32.925Z,102478.44
2022-10-22T19:10:00.125Z,102489.38
2022-10-22T19:12:28.785Z,102501.78
2022-10-22T19:14:56.025Z,102504.63
2022-10-22T19:17:23.250Z,102512.69
2022-10-22T19:19:50.529Z,102525.94
2022-10-22T19:22:17.708Z,102542.84
2022-10-22T19:24:44.904Z,102554.56
2022-10-22T19:27:12.184Z,102552.94
2022-10-22T19:29:40.739Z,102568.66
2022-10-22T19:34:40.057Z,102580.34
2022-10-22T19:37:07.361Z,102593.97
2022-10-22T19:39:34.682Z,102599.59
2022-10-22T19:42:01.894Z,102610.41
2022-10-22T19:44:29.114Z,102616.44
2022-10-22T19:46:57.645Z,102618.44
2022-10-22T19:49:24.937Z,102626.09
2022-10-22T19:51:52.214Z,102634.94
2022-10-22T19:54:19.659Z,102653.78
2022-10-22T19:56:47.932Z,102648.59
2022-10-22T19:59:16.093Z,102651.06
2022-10-22T20:01:43.426Z,102653.50
2022-10-22T20:04:16.549Z,102658.69
2022-10-22T20:06:44.472Z,102655.13
2022-10-22T20:09:13.216Z,102658.38
2022-10-22T20:11:40.520Z,102668.75
2022-10-22T20:14:07.773Z,102675.19
2022-10-22T20:16:35.020Z,102681.25
2022-10-22T20:19:04.791Z,102684.91
2022-10-22T20:21:33.997Z,102688.81
2022-10-22T20:24:01.715Z,102692.09
2022-10-22T20:26:29.321Z,102694.50
2022-10-22T20:28:57.487Z,102705.34
2022-10-22T20:31:27.072Z,102710.56
2022-10-22T20:33:56.439Z,102714.59
2022-10-22T20:36:24.025Z,102724.19
2022-10-22T20:38:52.691Z,102722.22
2022-10-22T20:41:21.566Z,102733.78
2022-10-22T20:43:50.767Z,102732.22
2022-10-22T20:46:20.921Z,102745.38
2022-10-22T20:48:49.969Z,102753.78
2022-10-22T20:51:17.188Z,102771.41
2022-10-22T20:53:44.397Z,102778.19
2022-10-22T20:56:13.714Z,102775.41
2022-10-22T20:58:41.236Z,102781.78
2022-10-22T21:01:09.519Z,102777.44
2022-10-22T21:03:37.110Z,102779.47
2022-10-22T21:06:05.579Z,102784.28
2022-10-22T21:08:32.828Z,102782.69
2022-10-22T21:11:00.120Z,102786.72
2022-10-22T21:13:31.526Z,102786.72
2022-10-22T21:15:58.906Z,102793.09
2022-10-22T21:18:26.084Z,102784.34
2022-10-22T21:20:53.279Z,102787.94
2022-10-22T21:23:20.478Z,102782.00
2022-10-22T21:25:53.542Z,102794.03
2022-10-22T21:28:20.918Z,102793.28
2022-10-22T21:30:49.546Z,102802.09
2022-10-22T21:33:17.260Z,102808.91
2022-10-22T21:35:50.229Z,102818.53
2022-10-22T21:38:17.622Z,102835.78
2022-10-22T21:40:44.901Z,102850.16
2022-10-22T21:43:12.441Z,102867.72
2022-10-22T21:45:39.956Z,102874.97
2022-10-22T21:48:08.726Z,102895.00
2022-10-22T21:50:38.691Z,102907.34
2022-10-22T21:53:06.030Z,102924.53
2022-10-22T21:55:37.705Z,102942.94
2022-10-22T21:58:05.226Z,102963.72
2022-10-22T22:00:32.649Z,102974.09
2022-10-22T22:02:59.980Z,102985.69
2022-10-22T22:05:29.462Z,103002.06
2022-10-22T22:07:56.696Z,103023.69
2022-10-22T22:10:30.598Z,103038.84
2022-10-22T22:12:58.455Z,103044.44
2022-10-22T22:15:25.737Z,103057.66
2022-10-22T22:17:52.916Z,103066.81
2022-10-22T22:20:20.244Z,103084.41
2022-10-22T22:22:48.895Z,103095.59
2022-10-22T22:25:16.258Z,103105.56
2022-10-22T22:27:43.839Z,103108.38
2022-10-22T22:30:11.947Z,103129.16
2022-10-22T22:32:39.125Z,103137.56
2022-10-22T22:35:06.818Z,103137.94
2022-10-22T22:37:34.140Z,103149.16
2022-10-22T22:40:02.745Z,103147.53
2022-10-22T22:42:29.970Z,103160.34
2022-10-22T22:44:57.930Z,103165.94
2022-10-22T22:47:25.161Z,103164.72
2022-10-22T22:49:52.456Z,103176.31
2022-10-22T22:54:51.950Z,103189.50
2022-10-22T22:57:20.534Z,103192.72
2022-10-22T22:59:49.912Z,103192.31
2022-10-22T23:02:17.351Z,103194.72
2022-10-22T23:04:44.575Z,103194.72
2022-10-22T23:07:11.794Z,103197.13
2022-10-22T23:09:39.077Z,103191.13
2022-10-22T23:12:06.568Z,103206.31
2022-10-22T23:14:35.253Z,103204.31
2022-10-22T23:17:02.480Z,103205.13
2022-10-22T23:19:29.672Z,103192.31
2022-10-22T23:21:57.124Z,103194.72
2022-10-22T23:24:27.136Z,103189.13
2022-10-22T23:26:55.955Z,103186.34
2022-10-22T23:29:25.159Z,103184.31
2022-10-22T23:31:55.009Z,103178.72
2022-10-22T23:34:24.257Z,103177.53
2022-10-22T23:36:52.745Z,103165.94
2022-10-22T23:39:22.131Z,103151.94
2022-10-22T23:41:49.920Z,103146.75
2022-10-22T23:44:17.361Z,103136.38
2022-10-22T23:46:44.590Z,103138.75
2022-10-22T23:49:13.964Z,103128.75
2022-10-22T23:51:41.473Z,103130.75
2022-10-22T23:54:12.393Z,103119.56
2022-10-22T23:56:39.819Z,103114.38
2022-10-22T23:59:07.932Z,103111.56
